createdAt,value
2018-12-15T00:00:06.248Z,15.57
2018-12-15T00:02:59.306Z,9.68
2018-12-15T00:05:52.368Z,19.27
2018-12-15T00:08:45.929Z,15.53
2018-12-15T00:11:38.989Z,13.83
2018-12-15T00:14:33.065Z,9.70
2018-12-15T00:17:26.121Z,17.70
2018-12-15T00:20:19.246Z,8.15
2018-12-15T00:23:12.234Z,11.43
2018-12-15T00:26:05.296Z,12.30
2018-12-15T00:28:58.353Z,21.50
2018-12-15T00:31:51.412Z,20.03
2018-12-15T00:34:46.620Z,9.20
2018-12-15T00:37:37.517Z,11.60
2018-12-15T00:40:27.082Z,22.37
2018-12-15T00:43:23.115Z,19.13
2018-12-15T00:46:19.754Z,16.10
2018-12-15T00:49:12.812Z,25.20
2018-12-15T00:52:05.863Z,9.67
2018-12-15T00:54:58.922Z,17.80
2018-12-15T00:57:51.983Z,26.77
2018-12-15T01:00:45.293Z,19.43
2018-12-15T01:03:41.930Z,18.50
2018-12-15T01:06:34.728Z,12.60
2018-12-15T01:09:28.042Z,33.67
2018-12-15T01:12:22.200Z,29.13
2018-12-15T01:15:15.178Z,22.87
2018-12-15T01:18:08.233Z,26.35
2018-12-15T01:21:01.804Z,16.87
2018-12-15T01:23:57.675Z,28.03
2018-12-15T01:26:50.474Z,25.80
2018-12-15T01:29:43.528Z,18.37
2018-12-15T01:32:36.330Z,17.90
2018-12-15T01:35:30.412Z,24.60
2018-12-15T01:38:23.470Z,21.70
2018-12-15T01:41:16.529Z,22.63
2018-12-15T01:44:12.648Z,22.23
2018-12-15T01:47:05.708Z,13.87
2018-12-15T01:49:59.532Z,22.80
2018-12-15T01:52:52.585Z,25.67
2018-12-15T01:55:46.668Z,23.23
2018-12-15T01:58:39.466Z,92.20
2018-12-15T02:01:32.524Z,21.03
2018-12-15T02:04:25.582Z,29.17
2018-12-15T02:07:18.637Z,22.37
2018-12-15T02:10:11.692Z,19.33
2018-12-15T02:13:04.489Z,14.93
2018-12-15T02:15:57.546Z,12.80
2018-12-15T02:18:50.868Z,24.07
2018-12-15T02:21:43.914Z,27.63
2018-12-15T02:24:39.274Z,24.90
2018-12-15T02:27:32.330Z,12.13
2018-12-15T02:30:25.129Z,29.40
2018-12-15T02:33:18.191Z,28.27
2018-12-15T02:36:10.987Z,18.03
2018-12-15T02:39:03.786Z,30.63
2018-12-15T02:41:56.841Z,25.27
2018-12-15T02:44:49.903Z,24.87
2018-12-15T02:47:44.237Z,20.13
2018-12-15T02:50:45.742Z,26.97
2018-12-15T02:53:38.799Z,16.60
2018-12-15T02:56:28.011Z,24.73
2018-12-15T02:59:21.834Z,19.57
2018-12-15T03:02:14.653Z,15.63
2018-12-15T03:05:08.202Z,11.87
2018-12-15T03:08:01.520Z,16.23
2018-12-15T03:10:54.317Z,30.47
2018-12-15T03:13:47.883Z,14.10
2018-12-15T03:16:37.079Z,13.03
2018-12-15T03:19:41.418Z,22.93
2018-12-15T03:22:34.216Z,19.53
2018-12-15T03:25:27.019Z,26.83
2018-12-15T03:28:21.099Z,14.37
2018-12-15T03:31:10.322Z,8.50
2018-12-15T03:34:03.371Z,22.93
2018-12-15T03:36:56.428Z,29.57
2018-12-15T03:39:45.643Z,15.38
2018-12-15T03:42:38.441Z,12.93
2018-12-15T03:45:31.759Z,26.33
2018-12-15T03:48:25.834Z,17.37
2018-12-15T03:51:15.990Z,20.70
2018-12-15T03:54:09.387Z,23.00
2018-12-15T03:57:02.701Z,14.77
2018-12-15T03:59:58.059Z,25.27
2018-12-15T04:02:51.114Z,30.57
2018-12-15T04:05:40.328Z,28.27
2018-12-15T04:08:33.389Z,30.20
2018-12-15T04:11:26.440Z,20.77
2018-12-15T04:14:19.501Z,29.73
2018-12-15T04:17:12.298Z,24.03
2018-12-15T04:20:06.377Z,19.53
2018-12-15T04:22:59.433Z,20.92
2018-12-15T04:25:52.489Z,19.73
2018-12-15T04:28:45.549Z,23.70
2018-12-15T04:31:38.857Z,21.33
2018-12-15T04:34:31.916Z,34.67
2018-12-15T04:37:26.259Z,21.90
2018-12-15T04:40:19.306Z,28.10
2018-12-15T04:43:12.364Z,29.97
2018-12-15T04:46:05.422Z,17.73
2018-12-15T04:49:01.545Z,22.13
2018-12-15T04:51:54.602Z,26.57
2018-12-15T04:54:47.657Z,22.90
2018-12-15T04:57:41.481Z,25.40
2018-12-15T05:00:35.053Z,17.17
2018-12-15T05:03:29.131Z,27.20
2018-12-15T05:06:22.191Z,21.33
2018-12-15T05:09:16.524Z,29.20
2018-12-15T05:12:09.323Z,26.53
2018-12-15T05:15:02.379Z,18.47
2018-12-15T05:17:56.458Z,26.10
2018-12-15T05:20:49.258Z,21.97
2018-12-15T05:23:43.080Z,20.07
2018-12-15T05:26:36.137Z,22.83
2018-12-15T05:29:36.875Z,33.70
2018-12-15T05:32:29.933Z,24.13
2018-12-15T05:35:24.786Z,27.27
2018-12-15T05:38:17.575Z,14.87
2018-12-15T05:41:11.405Z,27.53
2018-12-15T05:44:04.457Z,22.60
2018-12-15T05:46:59.562Z,28.52
2018-12-15T05:49:53.899Z,21.57
2018-12-15T05:52:55.152Z,16.40
2018-12-15T05:55:48.214Z,15.73
2018-12-15T05:58:41.513Z,19.57
2018-12-15T06:01:35.594Z,33.20
2018-12-15T06:04:28.665Z,25.87
2018-12-15T06:07:21.962Z,20.53
2018-12-15T06:10:15.024Z,26.90
2018-12-15T06:13:10.889Z,22.63
2018-12-15T06:15:58.760Z,19.50
2018-12-15T06:18:54.697Z,16.07
2018-12-15T06:21:47.754Z,27.40
2018-12-15T06:24:41.584Z,28.13
2018-12-15T06:27:34.634Z,18.40
2018-12-15T06:30:35.882Z,19.00
2018-12-15T06:33:29.196Z,34.47
2018-12-15T06:36:21.998Z,23.67
2018-12-15T06:39:11.984Z,27.40
2018-12-15T06:42:05.291Z,25.87
2018-12-15T06:44:59.370Z,31.20
2018-12-15T06:47:52.427Z,14.60
2018-12-15T06:50:45.479Z,18.83
2018-12-15T06:53:38.538Z,30.60
2018-12-15T06:56:31.338Z,30.83
2018-12-15T06:59:18.508Z,27.97
2018-12-15T07:02:12.332Z,11.13
2018-12-15T07:05:05.642Z,35.80
2018-12-15T07:07:59.731Z,20.77
2018-12-15T07:10:52.780Z,22.33
2018-12-15T07:13:47.116Z,21.80
2018-12-15T07:16:40.428Z,30.60
2018-12-15T07:19:33.226Z,29.93
2018-12-15T07:22:27.561Z,29.07
2018-12-15T07:25:20.365Z,27.80
2018-12-15T07:28:13.676Z,24.37
2018-12-15T07:31:06.736Z,23.00
2018-12-15T07:33:53.901Z,28.03
2018-12-15T07:36:46.952Z,17.03
2018-12-15T07:39:40.779Z,30.80
2018-12-15T07:42:34.345Z,16.43
2018-12-15T07:45:28.426Z,22.20
2018-12-15T07:48:22.250Z,23.22
2018-12-15T07:51:15.312Z,23.83
2018-12-15T07:54:08.622Z,25.72
2018-12-15T07:57:01.673Z,22.90
2018-12-15T07:59:55.504Z,16.53
2018-12-15T08:02:50.091Z,17.67
2018-12-15T08:05:43.916Z,28.50
2018-12-15T08:08:36.971Z,23.77
2018-12-15T08:11:40.009Z,16.53
2018-12-15T08:14:37.485Z,19.30
2018-12-15T08:17:51.473Z,15.07
2018-12-15T08:20:59.116Z,20.70
2018-12-15T08:23:52.427Z,14.40
2018-12-15T08:27:09.329Z,23.03
2018-12-15T08:30:07.481Z,12.43
2018-12-15T08:33:01.039Z,31.23
2018-12-15T08:36:08.239Z,30.27
2018-12-15T08:39:04.300Z,26.00
2018-12-15T08:41:57.366Z,26.42
2018-12-15T08:44:52.216Z,20.72
2018-12-15T08:47:46.801Z,19.07
2018-12-15T08:50:40.109Z,27.47
2018-12-15T08:53:33.679Z,28.42
2018-12-15T08:56:26.990Z,26.37
2018-12-15T08:59:23.375Z,24.47
2018-12-15T09:02:16.943Z,31.83
2018-12-15T09:05:11.282Z,23.40
2018-12-15T09:08:05.614Z,27.05
2018-12-15T09:10:59.179Z,27.27
2018-12-15T09:13:52.239Z,21.55
2018-12-15T09:16:45.547Z,13.10
2018-12-15T09:19:38.861Z,28.67
2018-12-15T09:22:33.202Z,20.60
2018-12-15T09:25:26.509Z,22.00
2018-12-15T09:28:19.828Z,34.93
2018-12-15T09:31:13.390Z,19.77
2018-12-15T09:34:06.445Z,17.97
2018-12-15T09:37:02.568Z,16.65
2018-12-15T09:39:55.633Z,21.73
2018-12-15T09:42:48.942Z,28.53
2018-12-15T09:45:44.301Z,36.07
2018-12-15T09:48:34.239Z,26.23
2018-12-15T09:51:27.597Z,22.37
2018-12-15T09:54:22.701Z,32.38
2018-12-15T09:57:16.526Z,26.77
2018-12-15T10:00:10.353Z,35.63
2018-12-15T10:03:06.998Z,12.30
2018-12-15T10:06:01.582Z,38.43
2018-12-15T10:08:54.892Z,23.17
2018-12-15T10:11:51.030Z,30.37
2018-12-15T10:14:46.892Z,17.27
2018-12-15T10:17:40.459Z,22.03
2018-12-15T10:20:34.284Z,20.93
2018-12-15T10:23:23.915Z,35.47
2018-12-15T10:26:18.347Z,35.50
2018-12-15T10:29:12.689Z,23.30
2018-12-15T10:32:16.236Z,30.97
2018-12-15T10:35:09.549Z,32.03
2018-12-15T10:38:02.600Z,11.07
2018-12-15T10:40:55.416Z,31.12
2018-12-15T10:43:49.492Z,26.40
2018-12-15T10:46:42.539Z,33.23
2018-12-15T10:49:35.852Z,26.53
2018-12-15T10:52:29.167Z,13.97
2018-12-15T10:55:23.501Z,25.10
2018-12-15T10:58:17.578Z,21.90
2018-12-15T11:01:24.206Z,17.75
2018-12-15T11:04:17.514Z,29.90
2018-12-15T11:07:10.827Z,9.60
2018-12-15T11:10:04.910Z,22.05
2018-12-15T11:12:58.216Z,23.80
2018-12-15T11:15:53.069Z,26.13
2018-12-15T11:18:49.450Z,22.73
2018-12-15T11:21:43.019Z,15.63
2018-12-15T11:24:36.076Z,29.00
2018-12-15T11:27:29.640Z,33.87
2018-12-15T11:30:25.904Z,28.90
2018-12-15T11:33:16.780Z,8.68
2018-12-15T11:36:09.844Z,31.37
2018-12-15T11:39:02.635Z,23.05
2018-12-15T11:41:55.955Z,22.00
2018-12-15T11:44:49.261Z,26.60
2018-12-15T11:47:42.570Z,27.13
2018-12-15T11:50:35.898Z,27.52
2018-12-15T11:53:28.942Z,24.25
2018-12-15T11:56:21.997Z,25.60
2018-12-15T11:59:16.074Z,21.90
2018-12-15T12:02:09.387Z,30.97
2018-12-15T12:05:02.699Z,16.93
2018-12-15T12:07:55.754Z,19.75
2018-12-15T12:10:48.554Z,23.30
2018-12-15T12:13:41.866Z,23.32
2018-12-15T12:16:34.935Z,35.70
2018-12-15T12:19:29.002Z,37.03
2018-12-15T12:22:22.059Z,32.90
2018-12-15T12:25:11.018Z,19.30
2018-12-15T12:28:04.586Z,36.90
2018-12-15T12:30:59.179Z,18.87
2018-12-15T12:33:51.975Z,19.05
2018-12-15T12:36:41.196Z,28.63
2018-12-15T12:39:34.506Z,22.15
2018-12-15T12:42:27.821Z,28.62
2018-12-15T12:45:23.947Z,20.93
2018-12-15T12:48:17.258Z,17.47
2018-12-15T12:51:10.570Z,26.10
2018-12-15T12:54:03.883Z,22.15
2018-12-15T12:56:56.940Z,35.70
2018-12-15T12:59:50.269Z,32.48
2018-12-15T13:02:43.314Z,32.35
2018-12-15T13:05:37.387Z,24.73
2018-12-15T13:08:30.448Z,29.17
2018-12-15T13:11:23.758Z,29.23
2018-12-15T13:14:17.067Z,34.90
2018-12-15T13:17:05.419Z,37.83
2018-12-15T13:19:54.474Z,30.23
2018-12-15T13:22:48.555Z,26.67
2018-12-15T13:25:41.613Z,32.23
2018-12-15T13:28:34.931Z,27.63
2018-12-15T13:31:27.977Z,33.03
2018-12-15T13:34:21.548Z,27.47
2018-12-15T13:37:14.865Z,32.13
2018-12-15T13:40:08.174Z,25.00
2018-12-15T13:43:01.482Z,24.82
2018-12-15T13:45:56.588Z,32.73
2018-12-15T13:48:51.437Z,27.40
2018-12-15T13:51:44.494Z,41.37
2018-12-15T13:54:38.572Z,40.70
2018-12-15T13:57:32.141Z,35.23
2018-12-15T14:00:26.730Z,31.80
2018-12-15T14:03:20.303Z,39.97
2018-12-15T14:06:14.383Z,40.10
2018-12-15T14:09:07.949Z,41.17
2018-12-15T14:12:01.514Z,45.52
2018-12-15T14:14:55.337Z,31.43
2018-12-15T14:17:45.838Z,29.83
2018-12-15T14:20:38.902Z,35.13
2018-12-15T14:23:32.718Z,25.55
2018-12-15T14:26:33.711Z,32.50
2018-12-15T14:29:26.773Z,39.77
2018-12-15T14:32:20.079Z,38.20
2018-12-15T14:35:13.131Z,34.10
2018-12-15T14:38:05.933Z,45.83
2018-12-15T14:40:58.989Z,30.77
2018-12-15T14:43:52.048Z,37.45
2018-12-15T14:46:46.124Z,17.87
2018-12-15T14:49:38.926Z,22.02
2018-12-15T14:52:33.003Z,35.08
2018-12-15T14:55:25.803Z,46.98
2018-12-15T14:58:16.118Z,21.05
2018-12-15T15:01:06.032Z,22.17
2018-12-15T15:03:59.339Z,26.20
2018-12-15T15:06:52.652Z,21.83
2018-12-15T15:09:53.388Z,21.07
2018-12-15T15:12:46.446Z,39.47
2018-12-15T15:15:38.602Z,35.43
2018-12-15T15:18:32.554Z,30.13
2018-12-15T15:21:25.611Z,28.30
2018-12-15T15:24:18.676Z,46.37
2018-12-15T15:27:11.727Z,29.35
2018-12-15T15:30:04.781Z,41.37
2018-12-15T15:32:57.839Z,30.80
2018-12-15T15:35:51.659Z,28.77
2018-12-15T15:38:45.994Z,24.80
2018-12-15T15:41:39.318Z,47.90
2018-12-15T15:44:32.365Z,41.00
2018-12-15T15:47:25.419Z,52.67
2018-12-15T15:50:19.500Z,41.17
2018-12-15T15:53:12.555Z,34.13
2018-12-15T15:56:06.640Z,51.37
2018-12-15T15:58:59.949Z,31.48
2018-12-15T16:01:53.259Z,41.90
2018-12-15T16:04:46.828Z,24.50
2018-12-15T16:07:40.400Z,38.08
2018-12-15T16:10:34.222Z,43.80
2018-12-15T16:13:27.789Z,35.50
2018-12-15T16:16:21.354Z,48.07
2018-12-15T16:19:14.666Z,43.13
2018-12-15T16:23:05.940Z,52.43
2018-12-15T16:25:59.915Z,48.37
2018-12-15T16:28:56.813Z,37.13
2018-12-15T16:31:51.468Z,32.10
2018-12-15T16:34:45.748Z,66.00
2018-12-15T16:37:39.065Z,54.33
2018-12-15T16:40:28.795Z,44.03
2018-12-15T16:43:32.842Z,37.93
2018-12-15T16:46:39.779Z,39.45
2018-12-15T16:49:34.321Z,55.07
2018-12-15T16:52:28.657Z,41.87
2018-12-15T16:55:19.148Z,51.27
2018-12-15T16:58:16.073Z,49.03
2018-12-15T17:01:06.913Z,52.90
2018-12-15T17:04:00.106Z,43.87
2018-12-15T17:06:53.164Z,39.37
2018-12-15T17:09:45.193Z,44.90
2018-12-15T17:12:38.250Z,41.47
2018-12-15T17:15:32.075Z,47.85
2018-12-15T17:18:22.314Z,29.27
2018-12-15T17:21:15.629Z,56.83
2018-12-15T17:24:08.691Z,47.47
2018-12-15T17:27:01.749Z,41.30
2018-12-15T17:29:54.795Z,37.80
2018-12-15T17:32:47.857Z,26.97
2018-12-15T17:35:41.161Z,46.13
2018-12-15T17:38:34.993Z,37.73
2018-12-15T17:41:28.045Z,38.90
2018-12-15T17:44:21.614Z,61.90
2018-12-15T17:47:14.927Z,55.43
2018-12-15T17:50:08.745Z,61.35
2018-12-15T17:52:58.141Z,53.07
2018-12-15T17:55:45.644Z,45.67
2018-12-15T17:58:39.214Z,51.50
2018-12-15T18:01:33.034Z,32.73
2018-12-15T18:04:26.346Z,45.13
2018-12-15T18:07:19.663Z,35.87
2018-12-15T18:10:12.974Z,43.83
2018-12-15T18:13:06.537Z,38.50
2018-12-15T18:16:01.715Z,26.70
2018-12-15T18:18:47.963Z,36.03
2018-12-15T18:21:43.410Z,42.63
2018-12-15T18:24:36.716Z,49.53
2018-12-15T18:27:29.774Z,40.47
2018-12-15T18:30:22.827Z,41.13
2018-12-15T18:33:13.147Z,48.13
2018-12-15T18:36:06.892Z,39.53
2018-12-15T18:39:00.715Z,32.98
2018-12-15T18:41:55.051Z,29.02
2018-12-15T18:44:55.786Z,36.87
2018-12-15T18:47:45.259Z,42.88
2018-12-15T18:50:38.827Z,24.00
2018-12-15T18:53:32.906Z,44.40
2018-12-15T18:56:26.218Z,28.87
2018-12-15T18:59:20.047Z,48.37
2018-12-15T19:02:14.125Z,53.60
2018-12-15T19:05:09.739Z,36.43
2018-12-15T19:08:02.794Z,35.10
2018-12-15T19:10:55.595Z,38.60
2018-12-15T19:13:49.933Z,30.17
2018-12-15T19:16:44.270Z,38.65
2018-12-15T19:19:37.836Z,32.73
2018-12-15T19:22:34.232Z,24.27
2018-12-15T19:25:39.826Z,33.60
2018-12-15T19:28:33.915Z,28.83
2018-12-15T19:31:27.223Z,32.17
2018-12-15T19:34:20.267Z,28.70
2018-12-15T19:37:13.334Z,16.77
2018-12-15T19:40:09.458Z,27.27
2018-12-15T19:43:02.508Z,19.03
2018-12-15T19:45:55.818Z,29.37
2018-12-15T19:48:49.905Z,26.85
2018-12-15T19:51:43.210Z,28.90
2018-12-15T19:54:36.777Z,19.87
2018-12-15T19:57:29.835Z,19.10
2018-12-15T20:00:24.985Z,22.07
2018-12-15T20:03:17.999Z,14.00
2018-12-15T20:06:11.055Z,25.47
2018-12-15T20:09:04.367Z,16.00
2018-12-15T20:11:58.726Z,29.45
2018-12-15T20:14:52.269Z,10.60
2018-12-15T20:17:46.090Z,15.90
2018-12-15T20:20:39.921Z,15.13
2018-12-15T20:23:33.484Z,12.87
2018-12-15T20:26:27.308Z,18.60
2018-12-15T20:29:20.875Z,19.62
2018-12-15T20:32:14.200Z,16.93
2018-12-15T20:35:08.014Z,16.07
2018-12-15T20:38:02.090Z,19.02
2018-12-15T20:44:01.268Z,15.30
2018-12-15T20:46:54.341Z,12.68
2018-12-15T20:49:50.701Z,17.15
2018-12-15T20:52:47.491Z,14.63
2018-12-15T20:55:38.857Z,13.05
2018-12-15T20:58:32.170Z,17.60
2018-12-15T21:01:27.532Z,11.57
2018-12-15T21:04:20.844Z,10.05
2018-12-15T21:07:15.443Z,9.47
2018-12-15T21:10:10.029Z,10.32
2018-12-15T21:13:09.493Z,10.00
2018-12-15T21:16:09.456Z,10.28
2018-12-15T21:19:09.421Z,13.30
2018-12-15T21:21:59.918Z,10.82
2018-12-15T21:24:50.253Z,7.58
2018-12-15T21:27:44.496Z,6.67
2018-12-15T21:30:38.832Z,6.50
2018-12-15T21:33:37.001Z,5.60
2018-12-15T21:36:31.083Z,6.40
2018-12-15T21:39:20.316Z,9.63
2018-12-15T21:42:26.665Z,9.75
2018-12-15T21:45:20.235Z,8.98
2018-12-15T21:48:14.838Z,8.73
2018-12-15T21:51:08.138Z,5.10
2018-12-15T21:54:02.473Z,4.70
2018-12-15T21:56:55.784Z,6.67
2018-12-15T21:59:49.613Z,5.67
2018-12-15T22:02:43.951Z,9.45
2018-12-15T22:05:37.016Z,9.13
2018-12-15T22:08:31.089Z,7.25
2018-12-15T22:11:24.652Z,9.28
2018-12-15T22:14:17.707Z,9.38
2018-12-15T22:17:07.439Z,7.72
2018-12-15T22:20:00.747Z,12.45
2018-12-15T22:22:54.068Z,6.70
2018-12-15T22:25:47.375Z,9.43
2018-12-15T22:28:40.938Z,7.30
2018-12-15T22:31:34.572Z,10.08
2018-12-15T22:34:30.121Z,9.53
2018-12-15T22:37:24.200Z,7.65
2018-12-15T22:40:17.257Z,6.58
2018-12-15T22:43:10.568Z,6.40
2018-12-15T22:46:03.626Z,11.60
2018-12-15T22:48:56.685Z,16.20
2018-12-15T22:51:49.739Z,6.97
2018-12-15T22:54:42.793Z,10.78
2018-12-15T22:57:35.851Z,6.95
2018-12-15T23:00:29.933Z,5.72
2018-12-15T23:03:24.521Z,11.53
2018-12-15T23:06:17.833Z,7.17
2018-12-15T23:09:11.150Z,2.75
2018-12-15T23:12:04.203Z,12.07
2018-12-15T23:14:58.286Z,3.70
2018-12-15T23:17:51.612Z,8.93
2018-12-15T23:20:44.650Z,11.22
2018-12-15T23:23:49.741Z,6.72
2018-12-15T23:26:43.049Z,11.30
2018-12-15T23:29:36.624Z,9.15
2018-12-15T23:32:29.460Z,12.05
2018-12-15T23:35:23.765Z,12.18
2018-12-15T23:38:25.777Z,7.90
2018-12-15T23:41:24.761Z,12.68
2018-12-15T23:44:18.032Z,13.05
2018-12-15T23:47:11.593Z,10.90
2018-12-15T23:50:05.683Z,6.67
2018-12-15T23:52:54.384Z,9.25
2018-12-15T23:55:47.182Z,13.62
2018-12-15T23:58:40.488Z,11.05
